createdAt,value
2023-05-15T00:00:34.787Z,101147.00
2023-05-15T00:03:02.523Z,101146.53
2023-05-15T00:05:29.356Z,101140.09
2023-05-15T00:07:56.001Z,101147.28
2023-05-15T00:10:22.663Z,101128.75
2023-05-15T00:12:49.426Z,101136.78
2023-05-15T00:15:16.040Z,101128.66
2023-05-15T00:17:42.635Z,101126.06
2023-05-15T00:20:10.085Z,101126.06
2023-05-15T00:22:36.874Z,101117.00
2023-05-15T00:25:03.766Z,101118.13
2023-05-15T00:27:30.520Z,101109.47
2023-05-15T00:29:57.149Z,101104.09
2023-05-15T00:32:24.731Z,101107.53
2023-05-15T00:34:51.269Z,101106.88
2023-05-15T00:37:19.222Z,101101.84
2023-05-15T00:39:46.106Z,101103.00
2023-05-15T00:42:15.471Z,101103.56
2023-05-15T00:44:44.370Z,101100.06
2023-05-15T00:47:11.900Z,101093.94
2023-05-15T00:49:39.053Z,101098.16
2023-05-15T00:52:08.615Z,101090.31
2023-05-15T00:54:35.542Z,101097.72
2023-05-15T00:57:05.356Z,101096.28
2023-05-15T00:59:33.092Z,101105.47
2023-05-15T01:01:59.999Z,101101.47
2023-05-15T01:04:26.754Z,101101.94
2023-05-15T01:06:54.136Z,101107.78
2023-05-15T01:09:23.696Z,101102.63
2023-05-15T01:11:53.498Z,101109.63
2023-05-15T01:14:20.057Z,101100.56
2023-05-15T01:16:46.744Z,101094.25
2023-05-15T01:19:13.498Z,101107.47
2023-05-15T01:22:18.174Z,101109.44
2023-05-15T01:25:06.829Z,101110.69
2023-05-15T01:27:48.588Z,101102.59
2023-05-15T01:30:24.521Z,101093.13
2023-05-15T01:33:02.826Z,101088.78
2023-05-15T01:35:41.651Z,101095.44
2023-05-15T01:38:27.775Z,101090.41
2023-05-15T01:41:03.365Z,101091.06
2023-05-15T01:43:33.118Z,101097.91
2023-05-15T01:46:00.963Z,101095.63
2023-05-15T01:48:31.464Z,101101.19
2023-05-15T01:51:02.794Z,101094.53
2023-05-15T01:53:32.327Z,101091.03
2023-05-15T01:55:59.973Z,101085.66
2023-05-15T01:58:27.655Z,101091.22
2023-05-15T02:00:55.463Z,101092.19
2023-05-15T02:03:22.338Z,101099.03
2023-05-15T02:05:50.732Z,101095.00
2023-05-15T02:08:17.677Z,101091.75
2023-05-15T02:10:44.579Z,101092.19
2023-05-15T02:13:12.677Z,101097.06
2023-05-15T02:15:39.558Z,101100.34
2023-05-15T02:18:06.589Z,101096.81
2023-05-15T02:20:33.283Z,101095.72
2023-05-15T02:22:59.961Z,101082.72
2023-05-15T02:25:43.695Z,101084.31
2023-05-15T02:28:20.805Z,101080.56
2023-05-15T02:31:05.820Z,101087.09
2023-05-15T02:33:45.917Z,101086.47
2023-05-15T02:36:19.142Z,101089.63
2023-05-15T02:38:52.206Z,101084.31
2023-05-15T02:41:19.840Z,101088.88
2023-05-15T02:43:49.071Z,101097.50
2023-05-15T02:46:16.378Z,101083.22
2023-05-15T02:48:44.173Z,101097.16
2023-05-15T02:51:11.126Z,101096.16
2023-05-15T02:53:41.880Z,101088.22
2023-05-15T02:56:16.562Z,101089.81
2023-05-15T02:58:43.380Z,101087.09
2023-05-15T03:01:28.902Z,101089.34
2023-05-15T03:03:55.630Z,101087.53
2023-05-15T03:06:22.492Z,101092.22
2023-05-15T03:08:49.127Z,101092.38
2023-05-15T03:11:16.356Z,101086.50
2023-05-15T03:13:42.939Z,101081.81
2023-05-15T03:16:09.805Z,101078.69
2023-05-15T03:18:36.525Z,101073.00
2023-05-15T03:21:03.288Z,101075.59
2023-05-15T03:23:31.444Z,101066.16
2023-05-15T03:25:59.222Z,101070.75
2023-05-15T03:28:26.014Z,101063.09
2023-05-15T03:30:52.668Z,101073.03
2023-05-15T03:33:19.594Z,101075.81
2023-05-15T03:35:46.441Z,101070.97
2023-05-15T03:38:13.153Z,101066.44
2023-05-15T03:40:39.874Z,101069.09
2023-05-15T03:43:06.817Z,101070.25
2023-05-15T03:45:37.160Z,101068.78
2023-05-15T03:48:03.981Z,101067.50
2023-05-15T03:50:30.885Z,101070.81
2023-05-15T03:52:57.683Z,101075.81
2023-05-15T03:55:24.594Z,101077.78
2023-05-15T03:57:51.525Z,101067.22
2023-05-15T04:00:19.147Z,101070.00
2023-05-15T04:02:46.211Z,101077.88
2023-05-15T04:05:13.026Z,101072.53
2023-05-15T04:07:39.803Z,101068.47
2023-05-15T04:10:07.075Z,101077.44
2023-05-15T04:12:35.495Z,101066.19
2023-05-15T04:15:16.980Z,101065.69
2023-05-15T04:17:45.101Z,101061.28
2023-05-15T04:20:14.353Z,101069.88
2023-05-15T04:22:42.574Z,101067.47
2023-05-15T04:25:11.040Z,101055.28
2023-05-15T04:27:38.865Z,101064.38
2023-05-15T04:30:06.495Z,101056.06
2023-05-15T04:32:34.044Z,101058.34
2023-05-15T04:35:01.486Z,101068.75
2023-05-15T04:37:29.206Z,101064.88
2023-05-15T04:39:55.849Z,101061.28
2023-05-15T04:42:23.579Z,101073.75
2023-05-15T04:44:50.305Z,101068.75
2023-05-15T04:47:16.987Z,101075.41
2023-05-15T04:49:43.681Z,101068.41
2023-05-15T04:52:11.413Z,101073.63
2023-05-15T04:54:38.103Z,101071.31
2023-05-15T04:57:05.098Z,101076.84
2023-05-15T04:59:31.789Z,101079.41
2023-05-15T05:01:58.586Z,101082.34
2023-05-15T05:04:25.368Z,101078.63
2023-05-15T05:06:52.543Z,101074.69
2023-05-15T05:09:20.093Z,101075.81
2023-05-15T05:11:47.743Z,101082.66
2023-05-15T05:14:15.294Z,101089.53
2023-05-15T05:16:44.909Z,101086.31
2023-05-15T05:19:11.791Z,101085.50
2023-05-15T05:21:38.821Z,101082.91
2023-05-15T05:24:05.950Z,101081.09
2023-05-15T05:26:32.748Z,101084.16
2023-05-15T05:28:59.452Z,101078.00
2023-05-15T05:31:26.223Z,101085.28
2023-05-15T05:33:52.981Z,101084.47
2023-05-15T05:36:19.725Z,101085.47
2023-05-15T05:38:46.541Z,101080.72
2023-05-15T05:41:13.185Z,101091.44
2023-05-15T05:43:39.820Z,101096.19
2023-05-15T05:46:07.921Z,101108.75
2023-05-15T05:48:34.593Z,101112.13
2023-05-15T05:51:03.547Z,101114.28
2023-05-15T05:53:30.279Z,101107.19
2023-05-15T05:55:56.984Z,101106.22
2023-05-15T05:58:26.441Z,101106.03
2023-05-15T06:00:53.719Z,101103.44
2023-05-15T06:03:24.600Z,101101.16
2023-05-15T06:05:51.369Z,101095.50
2023-05-15T06:08:18.142Z,101094.34
2023-05-15T06:10:44.794Z,101110.22
2023-05-15T06:13:11.931Z,101113.84
2023-05-15T06:15:39.769Z,101108.00
2023-05-15T06:18:06.781Z,101108.81
2023-05-15T06:20:34.091Z,101116.75
2023-05-15T06:23:00.861Z,101128.94
2023-05-15T06:25:27.482Z,101130.13
2023-05-15T06:27:54.151Z,101135.81
2023-05-15T06:30:20.795Z,101130.28
2023-05-15T06:32:47.537Z,101124.91
2023-05-15T06:35:14.381Z,101133.53
2023-05-15T06:37:41.113Z,101127.56
2023-05-15T06:40:08.577Z,101128.69
2023-05-15T06:42:35.560Z,101129.34
2023-05-15T06:45:02.266Z,101124.91
2023-05-15T06:47:29.086Z,101123.59
2023-05-15T06:49:55.732Z,101124.56
2023-05-15T06:52:22.392Z,101123.09
2023-05-15T06:54:48.993Z,101120.94
2023-05-15T06:57:16.062Z,101117.25
2023-05-15T06:59:43.890Z,101124.56
2023-05-15T07:02:10.879Z,101124.56
2023-05-15T07:04:37.768Z,101132.53
2023-05-15T07:07:04.669Z,101126.34
2023-05-15T07:09:31.416Z,101117.56
2023-05-15T07:11:58.102Z,101125.31
2023-05-15T07:14:24.892Z,101126.91
2023-05-15T07:16:51.692Z,101129.50
2023-05-15T07:19:21.098Z,101125.25
2023-05-15T07:21:48.063Z,101119.69
2023-05-15T07:24:14.702Z,101116.53
2023-05-15T07:26:50.647Z,101117.13
2023-05-15T07:29:24.636Z,101118.41
2023-05-15T07:31:52.703Z,101118.84
2023-05-15T07:34:19.489Z,101116.13
2023-05-15T07:36:46.087Z,101117.78
2023-05-15T07:39:13.348Z,101120.91
2023-05-15T07:41:40.024Z,101123.50
2023-05-15T07:44:07.105Z,101116.06
2023-05-15T07:46:34.774Z,101121.53
2023-05-15T07:49:01.854Z,101116.66
2023-05-15T07:51:47.303Z,101117.44
2023-05-15T07:54:13.943Z,101116.94
2023-05-15T07:56:40.664Z,101116.88
2023-05-15T07:59:07.838Z,101112.34
2023-05-15T08:01:34.797Z,101106.94
2023-05-15T08:04:01.430Z,101103.31
2023-05-15T08:06:28.141Z,101111.53
2023-05-15T08:08:54.877Z,101108.38
2023-05-15T08:11:22.213Z,101110.78
2023-05-15T08:13:49.081Z,101105.38
2023-05-15T08:16:16.224Z,101107.59
2023-05-15T08:18:42.888Z,101102.53
2023-05-15T08:21:09.520Z,101106.97
2023-05-15T08:23:36.357Z,101102.75
2023-05-15T08:26:02.957Z,101099.09
2023-05-15T08:28:29.602Z,101096.69
2023-05-15T08:30:56.292Z,101101.13
2023-05-15T08:33:22.978Z,101101.72
2023-05-15T08:35:49.710Z,101092.66
2023-05-15T08:38:16.400Z,101098.53
2023-05-15T08:40:47.358Z,101096.50
2023-05-15T08:43:17.668Z,101101.16
2023-05-15T08:45:44.731Z,101090.03
2023-05-15T08:48:14.860Z,101093.78
2023-05-15T08:50:43.651Z,101090.25
2023-05-15T08:53:14.186Z,101096.09
2023-05-15T08:55:42.269Z,101090.41
2023-05-15T08:58:09.717Z,101085.50
2023-05-15T09:00:38.785Z,101086.31
2023-05-15T09:03:05.781Z,101087.13
2023-05-15T09:05:32.857Z,101087.03
2023-05-15T09:08:04.087Z,101086.00
2023-05-15T09:10:31.716Z,101077.97
2023-05-15T09:12:59.347Z,101081.53
2023-05-15T09:15:27.264Z,101071.19
2023-05-15T09:17:56.189Z,101077.91
2023-05-15T09:20:37.154Z,101074.75
2023-05-15T09:23:06.212Z,101067.25
2023-05-15T09:25:42.749Z,101073.31
2023-05-15T09:28:11.537Z,101066.31
2023-05-15T09:30:39.457Z,101065.66
2023-05-15T09:33:06.267Z,101070.84
2023-05-15T09:35:32.973Z,101068.81
2023-05-15T09:38:01.466Z,101065.88
2023-05-15T09:40:32.603Z,101078.91
2023-05-15T09:42:59.549Z,101076.06
2023-05-15T09:45:29.924Z,101077.28
2023-05-15T09:47:59.882Z,101073.56
2023-05-15T09:50:37.146Z,101082.06
2023-05-15T09:53:04.963Z,101074.81
2023-05-15T09:55:34.917Z,101075.09
2023-05-15T09:58:21.369Z,101073.78
2023-05-15T10:00:49.699Z,101073.97
2023-05-15T10:03:18.895Z,101071.50
2023-05-15T10:05:45.816Z,101063.91
2023-05-15T10:08:13.021Z,101072.00
2023-05-15T10:10:40.051Z,101065.16
2023-05-15T10:13:08.277Z,101064.88
2023-05-15T10:15:35.561Z,101060.19
2023-05-15T10:18:04.399Z,101061.13
2023-05-15T10:20:49.863Z,101058.25
2023-05-15T10:23:18.408Z,101048.88
2023-05-15T10:25:56.138Z,101057.50
2023-05-15T10:28:23.057Z,101052.94
2023-05-15T10:30:49.922Z,101055.59
2023-05-15T10:33:19.852Z,101056.88
2023-05-15T10:35:48.514Z,101045.56
2023-05-15T10:38:15.967Z,101053.50
2023-05-15T10:40:43.745Z,101051.06
2023-05-15T10:43:13.088Z,101047.03
2023-05-15T10:45:40.102Z,101051.19
2023-05-15T10:48:09.327Z,101043.38
2023-05-15T10:50:37.790Z,101043.63
2023-05-15T10:53:04.537Z,101036.84
2023-05-15T10:55:31.553Z,101032.69
2023-05-15T10:58:17.940Z,101037.03
2023-05-15T11:00:45.670Z,101038.06
2023-05-15T11:03:16.725Z,101031.28
2023-05-15T11:06:09.901Z,101035.84
2023-05-15T11:08:41.651Z,101034.63
2023-05-15T11:11:10.672Z,101030.47
2023-05-15T11:14:05.181Z,101034.25
2023-05-15T11:16:53.806Z,101028.28
2023-05-15T11:19:35.188Z,101023.09
2023-05-15T11:22:16.899Z,101025.72
2023-05-15T11:25:09.158Z,101025.34
2023-05-15T11:27:40.250Z,101020.44
2023-05-15T11:30:10.019Z,101016.28
2023-05-15T11:32:52.803Z,101020.44
2023-05-15T11:35:44.080Z,101017.78
2023-05-15T11:38:10.974Z,101010.81
2023-05-15T11:40:52.892Z,101006.97
2023-05-15T11:43:32.829Z,101006.16
2023-05-15T11:46:10.948Z,100997.66
2023-05-15T11:48:40.107Z,101007.41
2023-05-15T11:51:16.545Z,101010.16
2023-05-15T11:53:43.580Z,100998.75
2023-05-15T11:56:23.787Z,101005.84
2023-05-15T11:58:51.978Z,100998.31
2023-05-15T12:01:18.664Z,101002.84
2023-05-15T12:03:48.319Z,100994.28
2023-05-15T12:06:15.568Z,100988.75
2023-05-15T12:08:42.354Z,100998.56
2023-05-15T12:11:09.664Z,100995.66
2023-05-15T12:13:36.388Z,100991.97
2023-05-15T12:16:04.113Z,101010.66
2023-05-15T12:18:32.369Z,101002.53
2023-05-15T12:20:59.805Z,101002.44
2023-05-15T12:23:28.639Z,101000.56
2023-05-15T12:26:00.360Z,101000.56
2023-05-15T12:28:27.468Z,100995.75
2023-05-15T12:30:54.765Z,100996.47
2023-05-15T12:33:21.898Z,101002.63
2023-05-15T12:35:58.024Z,100989.56
2023-05-15T12:38:26.958Z,100986.63
2023-05-15T12:41:12.740Z,100994.63
2023-05-15T12:43:39.640Z,100988.75
2023-05-15T12:46:06.448Z,101007.06
2023-05-15T12:48:33.564Z,100994.88
2023-05-15T12:51:08.135Z,101002.50
2023-05-15T12:53:36.407Z,100990.00
2023-05-15T12:56:04.924Z,100997.97
2023-05-15T12:58:31.632Z,100999.69
2023-05-15T13:00:58.969Z,100995.16
2023-05-15T13:03:26.519Z,100991.31
2023-05-15T13:05:53.355Z,100997.13
2023-05-15T13:08:20.521Z,100997.63
2023-05-15T13:10:47.964Z,100996.75
2023-05-15T13:13:15.588Z,100994.28
2023-05-15T13:15:48.484Z,100992.38
2023-05-15T13:18:18.606Z,101003.97
2023-05-15T13:20:50.090Z,101003.88
2023-05-15T13:23:19.491Z,101000.56
2023-05-15T13:25:46.566Z,101003.78
2023-05-15T13:28:13.932Z,101003.78
2023-05-15T13:30:42.238Z,100997.13
2023-05-15T13:33:10.616Z,101000.56
2023-05-15T13:35:38.404Z,101009.19
2023-05-15T13:38:25.212Z,101001.50
2023-05-15T13:40:51.965Z,100998.19
2023-05-15T13:43:18.593Z,101003.47
2023-05-15T13:45:45.259Z,100998.75
2023-05-15T13:48:11.906Z,100995.00
2023-05-15T13:50:57.554Z,100990.16
2023-05-15T13:53:24.127Z,100991.56
2023-05-15T13:55:51.894Z,100988.94
2023-05-15T13:58:21.222Z,100987.69
2023-05-15T14:00:48.874Z,100985.03
2023-05-15T14:03:15.904Z,100996.63
2023-05-15T14:05:42.618Z,100991.72
2023-05-15T14:08:09.406Z,100988.81
2023-05-15T14:10:37.505Z,100980.56
2023-05-15T14:13:04.569Z,100990.53
2023-05-15T14:15:31.155Z,100988.78
2023-05-15T14:17:57.948Z,100988.81
2023-05-15T14:20:25.695Z,100988.28
2023-05-15T14:22:52.464Z,100994.72
2023-05-15T14:25:19.171Z,100985.44
2023-05-15T14:27:46.693Z,100984.63
2023-05-15T14:30:14.529Z,100986.19
2023-05-15T14:32:41.563Z,100994.00
2023-05-15T14:35:08.319Z,100993.31
2023-05-15T14:37:36.685Z,100997.94
2023-05-15T14:40:05.108Z,100993.34
2023-05-15T14:42:32.147Z,101000.22
2023-05-15T14:44:58.895Z,100986.69
2023-05-15T14:47:27.942Z,100984.88
2023-05-15T14:49:54.580Z,100991.97
2023-05-15T14:52:21.293Z,100991.31
2023-05-15T14:54:56.959Z,101001.25
2023-05-15T14:57:34.572Z,100998.97
2023-05-15T15:00:02.455Z,100994.50
2023-05-15T15:02:29.145Z,101005.84
2023-05-15T15:04:57.974Z,101013.25
2023-05-15T15:07:29.691Z,101007.00
2023-05-15T15:09:56.319Z,101014.09
2023-05-15T15:12:24.132Z,101019.59
2023-05-15T15:14:50.760Z,101019.53
2023-05-15T15:17:18.477Z,101020.28
2023-05-15T15:19:50.857Z,101024.81
2023-05-15T15:22:17.600Z,101027.25
2023-05-15T15:24:44.299Z,101027.25
2023-05-15T15:27:10.913Z,101025.38
2023-05-15T15:29:37.567Z,101031.22
2023-05-15T15:32:04.723Z,101018.41
2023-05-15T15:34:31.332Z,101030.91
2023-05-15T15:36:57.953Z,101044.47
2023-05-15T15:39:24.733Z,101045.94
2023-05-15T15:41:51.402Z,101047.66
2023-05-15T15:44:18.292Z,101040.00
2023-05-15T15:46:44.919Z,101048.34
2023-05-15T15:49:11.694Z,101053.34
2023-05-15T15:51:38.574Z,101051.28
2023-05-15T15:54:05.531Z,101043.94
2023-05-15T15:56:33.525Z,101047.19
2023-05-15T15:59:00.162Z,101049.34
2023-05-15T16:01:27.581Z,101049.84
2023-05-15T16:03:54.349Z,101048.97
2023-05-15T16:06:21.156Z,101059.44
2023-05-15T16:08:47.756Z,101051.78
2023-05-15T16:11:15.773Z,101045.09
2023-05-15T16:13:43.728Z,101052.47
2023-05-15T16:16:10.654Z,101050.56
2023-05-15T16:18:37.565Z,101063.38
2023-05-15T16:21:04.397Z,101055.75
2023-05-15T16:23:37.961Z,101058.56
2023-05-15T16:26:05.110Z,101054.53
2023-05-15T16:28:32.438Z,101057.75
2023-05-15T16:30:59.887Z,101054.38
2023-05-15T16:33:26.871Z,101065.13
2023-05-15T16:35:53.699Z,101063.69
2023-05-15T16:38:20.998Z,101072.34
2023-05-15T16:40:47.734Z,101075.22
2023-05-15T16:43:15.790Z,101074.47
2023-05-15T16:45:42.937Z,101071.94
2023-05-15T16:48:09.606Z,101069.72
2023-05-15T16:50:37.235Z,101072.16
2023-05-15T16:53:04.905Z,101074.44
2023-05-15T16:55:32.521Z,101067.78
2023-05-15T16:57:59.435Z,101074.91
2023-05-15T17:00:26.517Z,101082.00
2023-05-15T17:02:53.791Z,101083.59
2023-05-15T17:05:20.744Z,101084.06
2023-05-15T17:07:47.481Z,101089.22
2023-05-15T17:10:25.509Z,101088.47
2023-05-15T17:13:01.076Z,101094.97
2023-05-15T17:15:28.038Z,101095.19
2023-05-15T17:17:54.928Z,101096.03
2023-05-15T17:20:21.619Z,101094.00
2023-05-15T17:22:48.377Z,101096.22
2023-05-15T17:25:15.041Z,101094.19
2023-05-15T17:27:41.971Z,101097.59
2023-05-15T17:30:10.441Z,101102.59
2023-05-15T17:32:38.935Z,101108.03
2023-05-15T17:35:06.450Z,101106.84
2023-05-15T17:37:33.836Z,101109.91
2023-05-15T17:40:00.873Z,101123.06
2023-05-15T17:42:28.483Z,101114.22
2023-05-15T17:44:56.476Z,101120.50
2023-05-15T17:47:23.599Z,101117.09
2023-05-15T17:49:50.355Z,101125.75
2023-05-15T17:52:17.166Z,101120.31
2023-05-15T17:54:43.835Z,101132.00
2023-05-15T17:57:11.029Z,101139.88
2023-05-15T17:59:37.804Z,101141.88
2023-05-15T18:02:04.806Z,101146.13
2023-05-15T18:04:31.493Z,101143.50
2023-05-15T18:06:58.277Z,101147.53
2023-05-15T18:09:25.450Z,101147.09
2023-05-15T18:11:52.177Z,101144.88
2023-05-15T18:14:18.958Z,101145.84
2023-05-15T18:16:45.834Z,101146.03
2023-05-15T18:19:12.761Z,101155.09
2023-05-15T18:21:39.468Z,101153.06
2023-05-15T18:24:06.745Z,101147.00
2023-05-15T18:26:33.530Z,101152.63
2023-05-15T18:29:00.161Z,101154.34
2023-05-15T18:31:26.936Z,101163.13
2023-05-15T18:33:53.735Z,101160.88
2023-05-15T18:36:20.385Z,101170.09
2023-05-15T18:38:47.008Z,101164.84
2023-05-15T18:41:13.618Z,101168.28
2023-05-15T18:43:40.597Z,101174.25
2023-05-15T18:46:07.283Z,101175.41
2023-05-15T18:48:33.873Z,101176.53
2023-05-15T18:51:00.665Z,101172.47
2023-05-15T18:53:28.446Z,101182.09
2023-05-15T18:55:55.063Z,101190.31
2023-05-15T18:58:22.051Z,101184.09
2023-05-15T19:00:50.867Z,101191.50
2023-05-15T19:03:18.879Z,101190.69
2023-05-15T19:05:45.708Z,101189.16
2023-05-15T19:08:12.310Z,101193.97
2023-05-15T19:10:38.858Z,101197.72
2023-05-15T19:13:05.808Z,101202.09
2023-05-15T19:15:32.744Z,101209.47
2023-05-15T19:17:59.497Z,101209.34
2023-05-15T19:20:26.906Z,101222.91
2023-05-15T19:22:55.749Z,101212.47
2023-05-15T19:25:22.748Z,101221.06
2023-05-15T19:27:49.939Z,101219.00
2023-05-15T19:30:16.543Z,101226.47
2023-05-15T19:32:43.270Z,101235.41
2023-05-15T19:35:10.262Z,101238.84
2023-05-15T19:37:37.417Z,101249.03
2023-05-15T19:40:07.082Z,101236.91
2023-05-15T19:42:33.787Z,101235.47
2023-05-15T19:45:00.678Z,101243.56
2023-05-15T19:47:27.484Z,101230.94
2023-05-15T19:49:54.407Z,101242.63
2023-05-15T19:52:21.155Z,101252.03
2023-05-15T19:54:47.792Z,101249.78
2023-05-15T19:57:14.420Z,101253.28
2023-05-15T19:59:41.215Z,101252.84
2023-05-15T20:02:11.229Z,101252.03
2023-05-15T20:04:37.994Z,101256.44
2023-05-15T20:07:05.203Z,101260.88
2023-05-15T20:09:33.804Z,101259.19
2023-05-15T20:12:00.883Z,101254.78
2023-05-15T20:14:28.002Z,101267.47
2023-05-15T20:16:54.782Z,101280.59
2023-05-15T20:19:22.400Z,101275.28
2023-05-15T20:21:50.646Z,101277.66
2023-05-15T20:24:18.109Z,101287.03
2023-05-15T20:26:45.198Z,101290.00
2023-05-15T20:29:13.257Z,101289.00
2023-05-15T20:31:40.570Z,101301.25
2023-05-15T20:34:08.212Z,101299.94
2023-05-15T20:36:34.970Z,101298.50
2023-05-15T20:39:05.681Z,101304.50
2023-05-15T20:41:33.552Z,101303.19
2023-05-15T20:44:00.451Z,101306.91
2023-05-15T20:46:29.937Z,101305.81
2023-05-15T20:48:56.841Z,101305.16
2023-05-15T20:51:24.103Z,101312.63
2023-05-15T20:53:52.089Z,101306.91
2023-05-15T20:56:18.963Z,101313.63
2023-05-15T20:58:45.707Z,101306.69
2023-05-15T21:01:12.447Z,101312.13
2023-05-15T21:03:39.245Z,101315.53
2023-05-15T21:06:06.069Z,101319.75
2023-05-15T21:08:53.071Z,101322.47
2023-05-15T21:11:19.806Z,101325.13
2023-05-15T21:13:46.500Z,101327.56
2023-05-15T21:16:13.153Z,101342.38
2023-05-15T21:18:40.070Z,101341.91
2023-05-15T21:21:07.309Z,101342.88
2023-05-15T21:23:36.607Z,101349.59
2023-05-15T21:26:03.955Z,101337.59
2023-05-15T21:28:30.879Z,101339.06
2023-05-15T21:30:57.838Z,101344.53
2023-05-15T21:33:24.501Z,101344.09
2023-05-15T21:35:51.678Z,101349.28
2023-05-15T21:38:18.521Z,101352.09
2023-05-15T21:40:45.304Z,101353.38
2023-05-15T21:43:12.045Z,101356.22
2023-05-15T21:45:38.828Z,101363.53
2023-05-15T21:48:05.656Z,101357.50
2023-05-15T21:50:32.784Z,101366.97
2023-05-15T21:52:59.511Z,101360.59
2023-05-15T21:55:26.328Z,101366.66
2023-05-15T21:57:52.866Z,101357.69
2023-05-15T22:00:19.758Z,101364.53
2023-05-15T22:02:46.565Z,101369.56
2023-05-15T22:05:13.542Z,101367.44
2023-05-15T22:07:40.499Z,101363.69
2023-05-15T22:10:07.738Z,101367.47
2023-05-15T22:12:34.777Z,101367.97
2023-05-15T22:15:01.384Z,101367.34
2023-05-15T22:17:29.396Z,101368.47
2023-05-15T22:20:08.126Z,101380.53
2023-05-15T22:22:35.756Z,101365.91
2023-05-15T22:25:02.755Z,101377.78
2023-05-15T22:27:29.427Z,101372.25
2023-05-15T22:29:56.425Z,101374.84
2023-05-15T22:32:23.462Z,101372.59
2023-05-15T22:34:50.329Z,101380.72
2023-05-15T22:37:16.965Z,101380.06
2023-05-15T22:39:43.939Z,101383.63
2023-05-15T22:42:10.666Z,101384.28
2023-05-15T22:44:37.565Z,101390.00
2023-05-15T22:47:04.380Z,101389.00
2023-05-15T22:49:31.183Z,101393.91
2023-05-15T22:51:58.448Z,101399.91
2023-05-15T22:54:25.262Z,101409.31
2023-05-15T22:56:52.663Z,101405.44
2023-05-15T22:59:19.980Z,101412.88
2023-05-15T23:01:47.485Z,101421.00
2023-05-15T23:04:15.187Z,101425.38
2023-05-15T23:06:41.963Z,101437.06
2023-05-15T23:09:09.822Z,101423.78
2023-05-15T23:11:37.855Z,101421.81
2023-05-15T23:14:04.605Z,101434.47
2023-05-15T23:16:31.808Z,101431.06
2023-05-15T23:18:59.839Z,101438.53
2023-05-15T23:21:27.008Z,101429.88
2023-05-15T23:23:54.026Z,101437.03
2023-05-15T23:26:22.106Z,101434.78
2023-05-15T23:28:48.833Z,101443.22
2023-05-15T23:31:15.717Z,101435.72
2023-05-15T23:33:42.985Z,101438.16
2023-05-15T23:36:09.905Z,101445.81
2023-05-15T23:38:37.611Z,101448.25
2023-05-15T23:41:04.390Z,101445.16
2023-05-15T23:43:32.224Z,101446.78
2023-05-15T23:45:58.940Z,101452.16
2023-05-15T23:48:26.350Z,101447.56
2023-05-15T23:50:53.088Z,101448.69
2023-05-15T23:53:20.918Z,101461.91
2023-05-15T23:55:47.859Z,101449.63
2023-05-15T23:58:14.610Z,101456.47
